Time;durP1;ratioP1;P1;durP2;ratioP2;P2;SDS_P1;SDS_P2;PMS_P1;PMS_P2;Temp;Humidity;BMP_temperature;BMP_pressure;BME280_temperature;BME280_humidity;BME280_pressure;Samples;Min_cycle;Max_cycle;Signal;HPM_P1;HPM_P2
2023/08/13 00:00:43;;;;;;;3.90;3.10;;;21.70;74.90;;;21.01;100.00;96331.38;4947375;28;20032;-61
2023/08/13 00:03:09;;;;;;;4.40;2.80;;;21.80;74.90;;;21.01;100.00;96331.38;4931036;29;20044;-61
2023/08/13 00:05:37;;;;;;;7.30;3.08;;;21.70;74.90;;;21.01;100.00;96334.03;4946840;28;20135;-61
2023/08/13 00:08:03;;;;;;;4.10;3.10;;;21.70;75.20;;;20.98;100.00;96342.56;4948064;28;20498;-61
2023/08/13 00:10:29;;;;;;;5.53;3.05;;;21.70;75.50;;;20.96;100.00;96334.78;4931320;29;20086;-61
2023/08/13 00:12:54;;;;;;;4.85;3.28;;;21.70;75.70;;;20.96;100.00;96328.63;4930297;28;20053;-61
2023/08/13 00:15:22;;;;;;;4.82;3.55;;;21.70;75.90;;;20.92;100.00;96332.88;4946735;28;20356;-62
2023/08/13 00:17:48;;;;;;;5.53;3.63;;;21.60;75.80;;;20.92;100.00;96327.53;4945844;28;20075;-61
2023/08/13 00:20:14;;;;;;;5.82;3.33;;;21.70;75.90;;;20.90;100.00;96330.44;4948268;28;20038;-61
2023/08/13 00:22:40;;;;;;;6.72;3.63;;;21.70;76.00;;;20.91;100.00;96331.25;4932306;29;20075;-61
2023/08/13 00:25:07;;;;;;;6.55;3.80;;;21.70;76.00;;;20.86;100.00;96325.84;4946891;28;20122;-61
2023/08/13 00:27:35;;;;;;;6.57;3.63;;;21.60;76.20;;;20.83;100.00;96324.50;4943132;28;20129;-61
2023/08/13 00:30:01;;;;;;;5.88;3.80;;;21.60;76.30;;;20.79;100.00;96324.16;4928977;28;20048;-62
2023/08/13 00:32:26;;;;;;;7.70;3.97;;;21.50;76.40;;;20.78;100.00;96329.75;4946558;28;20114;-62
2023/08/13 00:34:52;;;;;;;7.72;4.15;;;21.50;76.40;;;20.76;100.00;96335.34;4946326;28;20150;-62
2023/08/13 00:37:18;;;;;;;6.75;4.40;;;21.50;76.30;;;20.71;100.00;96324.59;4930276;28;20043;-62
2023/08/13 00:39:44;;;;;;;4.50;4.07;;;21.50;76.40;;;20.67;100.00;96326.13;4937508;29;20074;-62
2023/08/13 00:42:09;;;;;;;5.07;3.72;;;21.40;76.50;;;20.69;100.00;96326.69;4944777;28;20575;-62
2023/08/13 00:44:35;;;;;;;4.57;3.72;;;21.50;76.50;;;20.72;100.00;96333.41;4930591;29;20043;-61
2023/08/13 00:47:01;;;;;;;4.70;3.60;;;21.60;76.20;;;20.69;100.00;96326.69;4914746;28;20366;-62
2023/08/13 00:49:27;;;;;;;6.85;3.60;;;21.50;76.40;;;20.67;100.00;96328.81;4942263;28;20113;-62
2023/08/13 00:51:52;;;;;;;4.38;3.20;;;21.50;76.40;;;20.68;100.00;96327.75;4914611;28;20055;-61
2023/08/13 00:54:18;;;;;;;4.90;3.55;;;21.50;76.50;;;20.67;100.00;96326.13;4944635;28;20043;-62
2023/08/13 00:56:46;;;;;;;6.13;3.08;;;21.60;76.50;;;20.65;100.00;96327.44;4929500;29;20066;-62
2023/08/13 00:59:12;;;;;;;5.45;3.42;;;21.50;76.50;;;20.66;100.00;96329.88;4930213;28;20066;-61
2023/08/13 01:01:38;;;;;;;5.20;3.30;;;21.60;76.50;;;20.68;100.00;96332.28;4913970;28;20410;-62
2023/08/13 01:04:04;;;;;;;5.43;3.35;;;21.50;76.60;;;20.67;100.00;96339.50;4947127;28;20075;-61
2023/08/13 01:06:39;;;;;;;4.55;3.13;;;21.50;76.70;;;20.70;100.00;96335.53;4930290;29;20661;-62
2023/08/13 01:09:07;;;;;;;5.72;3.10;;;21.60;76.60;;;20.70;100.00;96336.34;4945778;28;20039;-61
2023/08/13 01:11:48;;;;;;;3.88;2.97;;;21.60;76.60;;;20.69;100.00;96329.38;4929482;28;20043;-62
2023/08/13 01:14:51;;;;;;;5.20;3.40;;;21.50;76.70;;;20.70;100.00;96331.00;4944677;28;20182;-62
2023/08/13 01:17:17;;;;;;;5.40;3.35;;;21.60;76.60;;;20.68;100.00;96327.75;4945715;28;20081;-62
2023/08/13 01:19:42;;;;;;;4.68;3.70;;;21.50;76.80;;;20.67;100.00;96328.81;4944812;28;20042;-61
2023/08/13 01:22:10;;;;;;;4.95;3.30;;;21.50;76.80;;;20.66;100.00;96329.88;4930970;28;20035;-62
2023/08/13 01:24:36;;;;;;;4.13;3.30;;;21.50;76.80;;;20.66;100.00;96324.53;4946174;28;20106;-62
2023/08/13 01:27:13;;;;;;;4.65;3.13;;;21.50;76.80;;;20.65;100.00;96328.25;4927346;28;20043;-62
2023/08/13 01:29:49;;;;;;;5.60;3.78;;;21.50;76.70;;;20.63;100.00;96329.56;4931245;28;20402;-62
2023/08/13 01:32:14;;;;;;;7.60;3.70;;;21.50;76.70;;;20.60;100.00;96330.88;4930148;28;20043;-61
2023/08/13 01:34:40;;;;;;;6.50;3.88;;;21.50;76.60;;;20.58;100.00;96324.94;4929822;29;20379;-62
2023/08/13 01:37:06;;;;;;;6.72;3.47;;;21.40;76.40;;;20.57;100.00;96330.53;4913609;28;20039;-61
2023/08/13 01:39:32;;;;;;;3.92;3.50;;;21.40;76.50;;;20.53;100.00;96327.53;4929901;28;20079;-62
2023/08/13 01:41:57;;;;;;;5.13;3.80;;;21.40;76.60;;;20.49;100.00;96332.56;4929696;28;20047;-62
2023/08/13 01:44:23;;;;;;;6.22;3.95;;;21.30;76.80;;;20.46;100.00;96327.72;4930123;29;20059;-62
2023/08/13 01:46:49;;;;;;;5.93;4.00;;;21.20;76.90;;;20.39;100.00;96323.59;4914583;29;20130;-62
2023/08/13 01:49:15;;;;;;;6.35;4.05;;;21.10;77.10;;;20.37;100.00;96320.34;4944853;28;20195;-61
2023/08/13 01:51:40;;;;;;;5.50;3.83;;;21.10;77.20;;;20.33;100.00;96321.88;4930725;28;20118;-61
2023/08/13 01:54:06;;;;;;;5.57;4.00;;;21.10;77.30;;;20.28;100.00;96311.13;4944139;28;20059;-61
2023/08/13 01:56:32;;;;;;;7.65;4.22;;;21.10;77.50;;;20.25;100.00;96327.63;4912921;29;20051;-62
2023/08/13 01:58:58;;;;;;;7.22;4.03;;;21.00;77.50;;;20.21;100.00;96315.81;4945894;28;20032;-61
2023/08/13 02:01:24;;;;;;;4.57;3.55;;;21.10;77.50;;;20.18;100.00;96317.13;4945271;28;20084;-62
2023/08/13 02:03:50;;;;;;;5.43;3.78;;;21.00;77.60;;;20.12;100.00;96312.75;4942304;28;20198;-61
2023/08/13 02:06:16;;;;;;;6.53;3.85;;;20.90;77.70;;;20.07;100.00;96310.81;4945300;28;20053;-61
2023/08/13 02:08:42;;;;;;;6.50;3.70;;;20.90;77.90;;;20.03;100.00;96303.53;4931610;28;20146;-62
2023/08/13 02:11:08;;;;;;;4.10;3.47;;;20.90;78.10;;;20.00;100.00;96301.34;4945311;28;20067;-61
2023/08/13 02:13:33;;;;;;;5.20;3.65;;;20.90;78.20;;;20.02;100.00;96301.91;4945361;28;20082;-61
2023/08/13 02:16:05;;;;;;;5.82;3.80;;;21.00;78.20;;;20.05;100.00;96307.56;4948325;28;20428;-61
2023/08/13 02:18:31;;;;;;;4.03;3.28;;;20.90;78.30;;;20.08;100.00;96301.72;4929515;29;20043;-61
2023/08/13 02:20:57;;;;;;;5.30;3.03;;;21.00;78.30;;;20.09;100.00;96311.38;4929839;29;20482;-61
2023/08/13 02:23:22;;;;;;;5.10;3.50;;;21.00;78.20;;;20.05;100.00;96302.22;4947298;28;20126;-61
2023/08/13 02:25:49;;;;;;;4.40;3.40;;;21.00;78.20;;;20.03;100.00;96309.69;4946855;28;20035;-61
2023/08/13 02:28:15;;;;;;;3.83;3.33;;;21.00;78.20;;;20.07;100.00;96310.81;4933883;28;20042;-62
2023/08/13 02:30:41;;;;;;;3.47;3.00;;;21.00;78.10;;;20.05;100.00;96312.91;4950485;28;20134;-61
2023/08/13 02:33:06;;;;;;;5.05;3.17;;;21.00;78.20;;;20.03;100.00;96304.34;4947293;28;20070;-62
2023/08/13 02:35:32;;;;;;;5.55;3.10;;;21.00;78.20;;;20.06;100.00;96303.03;4948309;28;20079;-61
2023/08/13 02:37:58;;;;;;;8.80;3.13;;;21.00;77.90;;;20.11;100.00;96313.78;4933168;29;20113;-63
2023/08/13 02:40:24;;;;;;;5.95;3.65;;;21.10;77.60;;;20.11;100.00;96317.28;4932487;28;20050;-61
2023/08/13 02:42:49;;;;;;;6.93;3.60;;;21.10;77.60;;;20.13;100.00;96320.50;4948848;28;20063;-61
2023/08/13 02:45:15;;;;;;;5.50;3.25;;;21.10;77.70;;;20.15;100.00;96323.75;4948292;28;20050;-61
2023/08/13 02:47:41;;;;;;;8.13;2.97;;;21.10;77.80;;;20.16;100.00;96324.56;4914004;28;20238;-62
2023/08/13 02:50:07;;;;;;;5.80;3.33;;;21.10;77.90;;;20.14;100.00;96321.31;4946886;28;20078;-61
2023/08/13 02:52:33;;;;;;;8.15;3.00;;;21.10;78.10;;;20.14;100.00;96318.63;4948471;28;20046;-62
2023/08/13 02:54:58;;;;;;;5.32;3.35;;;21.10;78.10;;;20.13;100.00;96315.16;4949934;28;20043;-61
2023/08/13 02:57:24;;;;;;;4.68;3.28;;;21.10;78.20;;;20.15;100.00;96313.09;4931103;28;20066;-61
2023/08/13 02:59:50;;;;;;;6.45;3.80;;;21.10;78.20;;;20.14;100.00;96310.63;4949769;28;20070;-61
2023/08/13 03:02:16;;;;;;;6.80;3.80;;;21.10;78.30;;;20.17;100.00;96307.50;4930368;28;20054;-61
2023/08/13 03:04:42;;;;;;;8.00;3.72;;;21.10;78.00;;;20.20;100.00;96317.69;4949788;28;20457;-61
2023/08/13 03:07:08;;;;;;;5.90;3.72;;;21.20;78.00;;;20.23;100.00;96319.06;4913742;28;20154;-61
2023/08/13 03:09:33;;;;;;;6.07;3.80;;;21.20;77.80;;;20.27;100.00;96321.00;4949131;28;20074;-62
2023/08/13 03:11:59;;;;;;;5.50;3.30;;;21.20;78.10;;;20.28;100.00;96319.13;4948122;28;20031;-62
2023/08/13 03:14:25;;;;;;;7.65;4.13;;;21.20;78.10;;;20.29;100.00;96323.41;4950456;28;20071;-62
2023/08/13 03:16:51;;;;;;;4.68;3.20;;;21.20;78.00;;;20.27;100.00;96317.50;4949732;28;20075;-61
2023/08/13 03:19:16;;;;;;;4.97;3.60;;;21.20;78.00;;;20.24;100.00;96318.00;4947812;28;20051;-62
2023/08/13 03:21:42;;;;;;;5.47;3.40;;;21.10;78.20;;;20.17;100.00;96316.31;4966348;28;20593;-62
2023/08/13 03:24:08;;;;;;;7.32;3.80;;;21.10;78.30;;;20.12;100.00;96313.53;4946705;28;20032;-62
2023/08/13 03:26:33;;;;;;;4.45;3.70;;;21.10;78.40;;;20.04;100.00;96311.28;4932882;29;20230;-62
2023/08/13 03:28:59;;;;;;;5.78;3.90;;;21.00;78.60;;;19.96;100.00;96314.38;4916333;29;20051;-62
2023/08/13 03:31:25;;;;;;;6.93;3.15;;;20.80;78.80;;;19.88;100.00;96304.88;4948267;28;21181;-61
2023/08/13 03:33:51;;;;;;;8.48;3.80;;;20.80;79.10;;;19.86;100.00;96306.19;4933101;29;20065;-62
2023/08/13 03:36:16;;;;;;;8.88;3.65;;;20.70;79.10;;;19.85;100.00;96301.91;4932428;28;20114;-61
2023/08/13 03:38:42;;;;;;;4.13;3.28;;;20.70;79.10;;;19.83;100.00;96310.16;4930970;29;20063;-61
2023/08/13 03:41:09;;;;;;;13.95;3.55;;;20.70;79.30;;;19.82;100.00;96305.06;4929154;28;20495;-61
2023/08/13 03:43:35;;;;;;;5.22;3.70;;;20.60;79.30;;;19.78;100.00;96312.75;4932894;28;20043;-61
2023/08/13 03:46:02;;;;;;;5.07;3.63;;;20.60;79.20;;;19.74;100.00;96313.47;4946896;28;20170;-61
2023/08/13 03:48:27;;;;;;;5.63;3.55;;;20.60;79.40;;;19.70;100.00;96315.00;4929970;28;20046;-61
2023/08/13 03:50:53;;;;;;;4.93;3.78;;;20.60;79.20;;;19.67;100.00;96315.47;4949490;28;20024;-61
2023/08/13 03:53:24;;;;;;;5.80;3.90;;;20.60;78.90;;;19.58;100.00;96302.53;4948496;28;20027;-61
2023/08/13 03:55:50;;;;;;;7.00;3.92;;;20.50;79.00;;;19.52;100.00;96313.31;4933050;29;20441;-61
2023/08/13 03:58:16;;;;;;;8.07;4.10;;;20.40;79.30;;;19.46;100.00;96301.75;4931527;28;20062;-61
2023/08/13 04:00:42;;;;;;;5.65;3.85;;;20.40;79.60;;;19.41;100.00;96304.31;4948348;28;20047;-61
2023/08/13 04:03:09;;;;;;;7.60;4.57;;;20.30;79.90;;;19.37;100.00;96308.53;4948329;28;20071;-61
2023/08/13 04:05:35;;;;;;;7.45;4.43;;;20.30;80.20;;;19.34;100.00;96306.34;4932451;28;20107;-61
2023/08/13 04:08:01;;;;;;;6.43;4.55;;;20.30;80.30;;;19.31;100.00;96306.81;4949613;28;20038;-61
2023/08/13 04:10:27;;;;;;;5.93;4.97;;;20.20;80.50;;;19.31;100.00;96311.34;4932787;28;20042;-61
2023/08/13 04:12:55;;;;;;;7.05;4.70;;;20.20;80.50;;;19.28;100.00;96305.44;4947353;28;20063;-61
2023/08/13 04:15:22;;;;;;;6.50;4.45;;;20.10;80.40;;;19.28;100.00;96309.97;4931164;28;20063;-60
2023/08/13 04:17:47;;;;;;;5.68;4.28;;;20.10;80.40;;;19.28;100.00;96307.28;4947924;28;20050;-61
2023/08/13 04:20:13;;;;;;;6.53;4.28;;;20.20;80.60;;;19.27;100.00;96316.34;4948810;28;20106;-61
2023/08/13 04:22:39;;;;;;;5.10;4.15;;;20.10;80.40;;;19.26;100.00;96314.72;4947214;28;20585;-61
2023/08/13 04:25:07;;;;;;;7.35;4.32;;;20.10;80.30;;;19.26;100.00;96320.06;4915446;29;20465;-61
2023/08/13 04:27:33;;;;;;;6.63;4.50;;;20.20;80.20;;;19.26;100.00;96317.41;4930759;28;20039;-61
2023/08/13 04:29:59;;;;;;;6.30;4.40;;;20.10;80.20;;;19.25;100.00;96319.25;4948961;28;20046;-62
2023/08/13 04:32:25;;;;;;;6.57;4.15;;;20.20;80.00;;;19.23;100.00;96318.66;4948274;28;20063;-61
2023/08/13 04:34:51;;;;;;;8.30;4.10;;;20.20;80.00;;;19.24;100.00;96319.50;4946929;28;20123;-61
2023/08/13 04:37:17;;;;;;;7.70;4.47;;;20.20;80.10;;;19.24;100.00;96316.81;4932513;28;20066;-61
2023/08/13 04:39:42;;;;;;;6.07;4.20;;;20.20;80.10;;;19.24;100.00;96322.16;4966134;28;20130;-61
2023/08/13 04:42:08;;;;;;;6.68;4.13;;;20.20;80.10;;;19.23;100.00;96315.19;4963564;28;20065;-67
2023/08/13 04:44:34;;;;;;;9.88;4.30;;;20.20;80.10;;;19.24;100.00;96311.50;4960431;28;20050;-67
2023/08/13 04:46:59;;;;;;;4.97;4.15;;;20.20;80.30;;;19.20;100.00;96305.78;4966929;28;20454;-66
2023/08/13 04:49:25;;;;;;;5.82;4.15;;;20.20;80.50;;;19.16;100.00;96303.84;4962851;28;20081;-62
2023/08/13 04:51:53;;;;;;;8.02;4.32;;;20.20;80.60;;;19.18;100.00;96302.56;4949569;28;20042;-61
2023/08/13 04:54:19;;;;;;;7.18;4.80;;;20.20;80.70;;;19.19;100.00;96304.19;4965538;28;20031;-62
2023/08/13 04:56:44;;;;;;;7.35;5.25;;;20.20;80.80;;;19.20;100.00;96299.66;4950032;28;20059;-62
2023/08/13 04:59:11;;;;;;;8.00;4.90;;;20.20;80.70;;;19.23;100.00;96294.66;4931113;29;20047;-63
2023/08/13 05:01:39;;;;;;;8.27;5.38;;;20.30;80.60;;;19.25;100.00;96297.91;4947410;28;20073;-61
2023/08/13 05:04:04;;;;;;;11.82;4.85;;;20.40;80.50;;;19.29;100.00;96292.91;4948599;28;20038;-62
2023/08/13 05:06:30;;;;;;;5.07;4.55;;;20.50;80.40;;;19.32;100.00;96297.75;4966715;28;20517;-61
2023/08/13 05:08:56;;;;;;;7.13;5.03;;;20.40;80.50;;;19.37;100.00;96295.19;4962698;28;20051;-62
2023/08/13 05:11:22;;;;;;;5.65;4.32;;;20.50;80.60;;;19.41;100.00;96301.66;4965353;28;20042;-62
2023/08/13 05:13:47;;;;;;;7.38;4.18;;;20.60;80.40;;;19.46;100.00;96299.09;4964461;28;20138;-62
2023/08/13 05:16:13;;;;;;;6.47;4.82;;;20.60;80.40;;;19.51;100.00;96301.84;4948430;28;20035;-61
2023/08/13 05:18:39;;;;;;;8.48;4.30;;;20.70;80.30;;;19.55;100.00;96303.00;4966578;28;20051;-62
2023/08/13 05:21:06;;;;;;;8.15;4.38;;;20.70;80.30;;;19.61;100.00;96303.09;4963989;28;20418;-62
2023/08/13 05:23:31;;;;;;;6.80;4.20;;;20.80;80.50;;;19.66;100.00;96297.84;4956992;28;20074;-62
2023/08/13 05:25:57;;;;;;;7.40;4.50;;;20.90;80.50;;;19.73;100.00;96298.50;4959498;28;20159;-61
2023/08/13 05:28:23;;;;;;;15.07;10.90;;;21.00;80.50;;;19.78;100.00;96293.25;4941807;28;20552;-62
2023/08/13 05:30:49;;;;;;;31.05;27.17;;;21.00;80.30;;;19.84;100.00;96300.28;4966187;28;20061;-60
2023/08/13 05:33:14;;;;;;;17.40;14.55;;;21.10;80.30;;;19.90;100.00;96304.66;4955576;28;20055;-61
2023/08/13 05:35:40;;;;;;;14.98;13.38;;;21.20;80.30;;;19.95;100.00;96301.28;4966383;28;20456;-62
2023/08/13 05:38:06;;;;;;;13.52;12.13;;;21.30;80.60;;;20.01;100.00;96308.31;4960746;28;20511;-61
2023/08/13 05:40:31;;;;;;;13.50;11.13;;;21.30;80.60;;;20.07;100.00;96301.97;4945512;28;20094;-62
2023/08/13 05:42:57;;;;;;;8.65;7.50;;;21.40;80.60;;;20.14;100.00;96306.13;4950573;28;20078;-61
2023/08/13 05:45:23;;;;;;;6.03;5.32;;;21.50;80.40;;;20.22;100.00;96302.22;4915018;28;20603;-62
2023/08/13 05:47:50;;;;;;;8.80;4.55;;;21.60;80.10;;;20.28;100.00;96295.88;4949112;28;20510;-62
2023/08/13 05:50:15;;;;;;;15.40;10.88;;;21.60;80.00;;;20.38;100.00;96297.91;4949952;28;20035;-61
2023/08/13 05:52:41;;;;;;;12.80;11.38;;;21.80;79.80;;;20.49;100.00;96307.72;4964647;28;20038;-61
2023/08/13 05:55:07;;;;;;;16.83;12.90;;;22.00;79.40;;;20.62;100.00;96303.88;4962191;28;20074;-62
2023/08/13 05:57:34;;;;;;;17.67;15.82;;;22.10;78.60;;;20.76;100.00;96297.91;4944437;28;20032;-62
2023/08/13 05:59:59;;;;;;;7.68;6.63;;;22.40;77.70;;;20.92;100.00;96300.78;4942537;28;20035;-62
2023/08/13 06:02:25;;;;;;;9.02;6.03;;;22.60;76.20;;;21.06;100.00;96296.69;4969912;28;20502;-67
2023/08/13 06:04:51;;;;;;;7.53;5.45;;;22.70;76.00;;;21.19;100.00;96298.97;4936577;28;20118;-68
2023/08/13 06:07:17;;;;;;;12.38;9.02;;;22.80;75.50;;;21.31;100.00;96298.84;4964158;28;20572;-67
2023/08/13 06:09:43;;;;;;;21.42;17.73;;;22.90;75.20;;;21.40;100.00;96295.47;4964094;28;20537;-67
2023/08/13 06:12:09;;;;;;;7.47;5.80;;;23.00;75.40;;;21.45;100.00;96288.53;4955254;28;20043;-66
2023/08/13 06:14:35;;;;;;;27.23;21.98;;;23.00;74.50;;;21.51;100.00;96293.72;4950767;28;20047;-66
2023/08/13 06:17:01;;;;;;;14.48;10.07;;;23.10;74.70;;;21.60;100.00;96288.69;4952181;28;20055;-63
2023/08/13 06:19:27;;;;;;;8.57;6.60;;;23.10;74.60;;;21.71;100.00;96293.06;4951773;28;20465;-64
2023/08/13 06:21:52;;;;;;;7.32;4.95;;;23.40;74.00;;;21.88;100.00;96292.94;4952462;28;20117;-65
2023/08/13 06:24:18;;;;;;;6.35;4.05;;;23.70;73.20;;;22.06;100.00;96289.09;4952978;28;20506;-63
2023/08/13 06:26:44;;;;;;;6.15;4.20;;;24.10;71.90;;;22.25;100.00;96283.09;4952066;28;20110;-63
2023/08/13 06:29:10;;;;;;;5.68;3.63;;;24.40;71.10;;;22.45;100.00;96277.06;4953983;28;20201;-63
2023/08/13 06:31:37;;;;;;;5.22;3.83;;;24.70;70.00;;;22.65;100.00;96281.72;4966046;28;20410;-63
2023/08/13 06:34:03;;;;;;;8.40;3.63;;;25.00;69.50;;;22.80;100.00;96284.44;4967234;28;20063;-63
2023/08/13 06:36:29;;;;;;;8.32;5.88;;;24.90;69.50;;;22.88;100.00;96288.56;4919326;28;20043;-64
2023/08/13 06:38:55;;;;;;;8.63;6.25;;;24.80;69.10;;;22.96;100.00;96276.50;4972282;28;20475;-63
2023/08/13 06:41:21;;;;;;;9.70;6.82;;;25.00;68.50;;;23.05;100.00;96273.03;4970963;28;20541;-63
2023/08/13 06:43:46;;;;;;;4.95;3.60;;;25.10;68.40;;;23.16;100.00;96281.94;4938127;28;20054;-62
2023/08/13 06:46:12;;;;;;;4.60;3.45;;;25.40;68.40;;;23.28;100.00;96281.69;4953336;28;20506;-62
2023/08/13 06:48:38;;;;;;;9.50;5.80;;;25.60;67.20;;;23.40;100.00;96279.59;4972005;28;20066;-63
2023/08/13 06:51:04;;;;;;;6.57;4.38;;;25.80;66.20;;;23.52;100.00;96282.81;4970945;28;20054;-63
2023/08/13 06:53:29;;;;;;;4.55;3.15;;;26.00;66.30;;;23.64;100.00;96280.72;4972981;28;20117;-64
2023/08/13 06:55:55;;;;;;;4.78;3.25;;;26.10;65.80;;;23.75;100.00;96284.22;4954323;28;20109;-63
2023/08/13 06:58:21;;;;;;;4.90;3.17;;;26.10;65.20;;;23.85;100.00;96288.81;4978796;28;20035;-62
2023/08/13 07:00:47;;;;;;;3.75;3.00;;;26.20;65.60;;;23.97;100.00;96282.06;4955837;28;20552;-61
2023/08/13 07:03:12;;;;;;;15.20;11.45;;;26.40;65.40;;;24.14;100.00;96276.41;4933862;28;20418;-62
2023/08/13 07:05:42;;;;;;;5.88;4.95;;;26.60;64.90;;;24.34;100.00;96278.31;4955276;28;20402;-62
2023/08/13 07:08:09;;;;;;;4.68;2.72;;;26.90;63.20;;;24.49;96.60;96278.28;4957081;28;20118;-61
2023/08/13 07:10:35;;;;;;;4.80;3.05;;;27.00;61.60;;;24.68;96.89;96270.44;4954972;28;20126;-63
2023/08/13 07:13:00;;;;;;;4.72;2.92;;;27.00;63.30;;;24.86;96.13;96272.50;4953409;28;20047;-62
2023/08/13 07:15:26;;;;;;;7.55;6.75;;;27.20;62.90;;;25.01;95.81;96275.16;4972721;28;20093;-62
2023/08/13 07:17:52;;;;;;;33.78;28.88;;;27.40;62.50;;;25.19;95.29;96271.06;4952254;28;20027;-62
2023/08/13 07:20:18;;;;;;;7.20;5.20;;;27.50;62.90;;;25.37;93.47;96277.69;4936863;29;20442;-62
2023/08/13 07:22:45;;;;;;;3.40;2.70;;;27.60;61.90;;;25.48;92.54;96278.41;4952060;28;20041;-61
2023/08/13 07:25:11;;;;;;;6.10;3.10;;;27.70;61.80;;;25.56;91.08;96275.13;4936410;29;20498;-62
2023/08/13 07:27:39;;;;;;;7.22;2.67;;;27.60;61.30;;;25.59;90.26;96271.91;4952720;28;20049;-62
2023/08/13 07:30:07;;;;;;;3.65;2.58;;;27.60;61.30;;;25.64;90.40;96275.34;4935399;29;20034;-62
2023/08/13 07:32:35;;;;;;;31.08;27.02;;;27.60;62.70;;;25.68;91.44;96278.31;4951620;28;20038;-62
2023/08/13 07:35:00;;;;;;;11.63;8.23;;;27.60;63.10;;;25.70;90.98;96273.44;4936113;28;20494;-63
2023/08/13 07:37:26;;;;;;;7.25;5.57;;;27.50;62.60;;;25.71;89.95;96282.34;4951897;28;20039;-63
2023/08/13 07:39:52;;;;;;;4.88;2.80;;;27.50;62.40;;;25.68;87.75;96267.53;4950921;28;20035;-62
2023/08/13 07:42:18;;;;;;;3.67;2.50;;;27.40;61.20;;;25.62;86.28;96269.44;4949804;28;20046;-62
2023/08/13 07:44:44;;;;;;;4.07;2.70;;;27.30;61.00;;;25.61;86.40;96267.03;4953167;28;20031;-62
2023/08/13 07:47:10;;;;;;;4.80;2.67;;;27.40;61.10;;;25.64;86.42;96264.56;4952286;28;20086;-62
2023/08/13 07:49:36;;;;;;;3.33;2.47;;;27.60;60.90;;;25.73;85.40;96258.59;4935563;28;20127;-62
2023/08/13 07:52:02;;;;;;;3.95;2.92;;;28.10;59.20;;;25.83;85.27;96263.94;4934547;29;20035;-62
2023/08/13 07:54:28;;;;;;;3.85;2.47;;;28.40;58.60;;;25.95;85.79;96256.28;4936191;29;20414;-62
2023/08/13 07:56:54;;;;;;;4.72;2.70;;;28.70;58.20;;;26.10;85.33;96258.03;4936823;28;20027;-63
2023/08/13 07:59:20;;;;;;;5.65;2.80;;;29.00;57.70;;;26.31;85.39;96264.03;4935614;28;20126;-62
2023/08/13 08:01:45;;;;;;;4.32;2.72;;;29.50;57.40;;;26.55;84.87;96254.09;4935367;28;20057;-62
2023/08/13 08:04:11;;;;;;;5.57;2.80;;;29.90;55.40;;;26.80;84.69;96256.50;4953361;28;20066;-63
2023/08/13 08:06:37;;;;;;;3.72;2.55;;;30.10;55.70;;;27.10;83.14;96257.25;4951673;28;20031;-62
2023/08/13 08:09:05;;;;;;;4.65;2.75;;;30.60;54.30;;;27.43;82.32;96248.16;4937145;28;20433;-62
2023/08/13 08:11:31;;;;;;;3.67;2.60;;;31.10;53.50;;;27.82;79.89;96255.13;4949630;28;20073;-63
2023/08/13 08:13:57;;;;;;;6.25;2.50;;;31.60;51.00;;;28.18;78.47;96255.34;4917830;28;20042;-62
2023/08/13 08:16:22;;;;;;;3.90;2.63;;;32.00;51.00;;;28.45;77.12;96251.91;4950385;28;20578;-63
2023/08/13 08:18:50;;;;;;;5.18;2.22;;;31.70;51.00;;;28.62;75.85;96252.13;4952578;28;20754;-62
2023/08/13 08:21:16;;;;;;;3.63;2.95;;;31.80;50.80;;;28.84;75.80;96247.94;4935834;29;20384;-64
2023/08/13 08:23:42;;;;;;;3.30;2.47;;;32.30;50.80;;;29.02;74.23;96246.25;4931359;28;20582;-62
2023/08/13 08:26:07;;;;;;;3.70;2.55;;;32.00;50.50;;;29.09;73.06;96244.72;4953136;28;20351;-63
2023/08/13 08:28:33;;;;;;;5.05;2.95;;;31.90;50.60;;;29.28;72.55;96242.69;4934037;29;20502;-62
2023/08/13 08:30:59;;;;;;;7.32;2.92;;;32.80;49.30;;;29.53;73.02;96251.38;4949559;28;20059;-63
2023/08/13 08:33:26;;;;;;;5.95;2.70;;;33.00;49.60;;;29.74;71.79;96252.50;4933762;28;20059;-63
2023/08/13 08:35:51;;;;;;;5.07;2.88;;;32.90;48.80;;;29.83;70.50;96250.63;4935194;28;20098;-63
2023/08/13 08:38:17;;;;;;;4.95;2.80;;;32.90;49.10;;;29.95;69.61;96252.00;4949930;28;20043;-62
2023/08/13 08:40:45;;;;;;;7.95;2.55;;;32.80;48.40;;;30.04;69.69;96247.47;4936218;28;20106;-61
2023/08/13 08:43:11;;;;;;;4.82;3.13;;;32.80;49.60;;;30.08;68.43;96253.84;4935302;29;20490;-62
2023/08/13 08:45:37;;;;;;;7.30;2.88;;;32.50;48.70;;;30.05;68.86;96259.91;4936389;28;20113;-62
2023/08/13 08:48:05;;;;;;;3.70;2.60;;;32.40;50.40;;;30.03;67.45;96245.81;4935423;28;20521;-62
2023/08/13 08:50:31;;;;;;;5.65;2.72;;;32.20;49.60;;;29.97;67.83;96244.34;4950979;28;20039;-63
2023/08/13 08:52:59;;;;;;;3.63;2.67;;;32.10;50.40;;;29.89;68.50;96251.34;4953013;28;20073;-62
2023/08/13 08:55:25;;;;;;;4.68;3.03;;;32.10;51.70;;;29.87;68.70;96238.09;4944131;28;20411;-62
2023/08/13 08:57:50;;;;;;;5.07;2.90;;;32.20;51.40;;;29.86;68.66;96247.31;4950490;28;20027;-63
2023/08/13 09:00:16;;;;;;;4.13;2.50;;;32.00;51.20;;;29.76;68.23;96236.72;4952409;28;20395;-61
2023/08/13 09:02:43;;;;;;;3.28;2.63;;;31.70;51.60;;;29.69;68.32;96235.56;4949975;28;20038;-62
2023/08/13 09:05:09;;;;;;;5.18;2.83;;;31.90;51.90;;;29.65;68.43;96229.94;4950268;28;20151;-62
2023/08/13 09:07:35;;;;;;;5.00;3.15;;;31.60;51.40;;;29.61;68.78;96228.13;4918649;28;20043;-62
2023/08/13 09:10:04;;;;;;;5.15;3.20;;;31.70;52.10;;;29.61;67.06;96223.50;4934622;28;20123;-62
2023/08/13 09:12:38;;;;;;;4.32;3.00;;;32.10;50.70;;;29.75;67.83;96229.69;4917524;29;20122;-62
2023/08/13 09:15:11;;;;;;;4.82;3.13;;;32.30;51.30;;;29.72;67.03;96224.88;4951812;28;20043;-62
2023/08/13 09:17:40;;;;;;;4.00;3.00;;;31.80;51.50;;;29.67;67.04;96211.47;4950490;28;20049;-63
2023/08/13 09:20:16;;;;;;;5.22;2.80;;;32.00;50.90;;;29.84;67.85;96216.97;4934882;28;20137;-62
2023/08/13 09:22:48;;;;;;;3.95;2.88;;;32.70;50.10;;;30.16;67.32;96210.50;4949393;28;20036;-62
2023/08/13 09:25:15;;;;;;;5.60;2.75;;;33.40;49.20;;;30.51;67.22;96220.72;4950757;28;20043;-62
2023/08/13 09:27:41;;;;;;;4.57;2.75;;;34.00;48.20;;;30.83;66.58;96206.00;4950271;28;20035;-62
2023/08/13 09:30:12;;;;;;;5.93;3.03;;;34.30;46.90;;;31.16;64.59;96195.50;4953226;28;20039;-63
2023/08/13 09:32:38;;;;;;;3.28;2.47;;;34.60;46.30;;;31.49;64.77;96199.41;4949377;28;20039;-62
2023/08/13 09:35:04;;;;;;;5.03;3.05;;;35.10;45.70;;;31.82;64.20;96191.56;4932939;28;20035;-63
2023/08/13 09:37:30;;;;;;;4.82;2.83;;;35.60;45.00;;;32.16;63.81;96182.50;4938220;28;20118;-63
2023/08/13 09:39:56;;;;;;;4.13;3.10;;;36.00;44.30;;;32.52;61.65;96173.09;4954183;28;20111;-61
2023/08/13 09:42:23;;;;;;;3.90;2.60;;;36.30;42.40;;;32.79;61.51;96169.94;4937764;29;20046;-61
2023/08/13 09:44:51;;;;;;;3.63;2.17;;;36.70;42.90;;;33.12;59.72;96166.53;4953485;28;20027;-61
2023/08/13 09:47:17;;;;;;;3.65;2.17;;;37.10;41.50;;;33.44;59.67;96167.72;4956108;28;20035;-64
2023/08/13 09:49:43;;;;;;;4.78;2.63;;;37.50;42.00;;;33.77;58.19;96170.50;4924620;28;20057;-62
2023/08/13 09:52:09;;;;;;;6.18;2.65;;;37.80;40.60;;;34.07;57.13;96168.44;4957427;28;20035;-62
2023/08/13 09:54:57;;;;;;;4.72;2.83;;;38.20;39.80;;;34.36;53.22;96142.88;4957349;28;20047;-62
2023/08/13 09:57:23;;;;;;;3.35;2.40;;;38.50;38.80;;;34.54;55.56;96168.84;4972045;28;20035;-62
2023/08/13 09:59:49;;;;;;;4.63;2.72;;;38.70;38.70;;;34.77;53.44;96150.06;4957650;28;20039;-63
2023/08/13 10:02:17;;;;;;;2.80;2.20;;;38.90;36.80;;;34.93;52.61;96155.66;4945717;28;20031;-62
2023/08/13 10:04:43;;;;;;;3.42;2.30;;;39.10;37.20;;;35.16;53.47;96145.81;4958551;28;20031;-61
2023/08/13 10:07:09;;;;;;;4.35;2.33;;;39.50;38.00;;;35.45;52.04;96138.44;4958267;28;20086;-62
2023/08/13 10:09:36;;;;;;;4.10;2.67;;;39.80;36.50;;;35.60;52.02;96134.97;4955628;28;20137;-61